Time;durP1;ratioP1;P1;durP2;ratioP2;P2;SDS_P1;SDS_P2;PMS_P1;PMS_P2;Temp;Humidity;BMP_temperature;BMP_pressure;BME280_temperature;BME280_humidity;BME280_pressure;Samples;Min_cycle;Max_cycle;Signal;HPM_P1;HPM_P2
2022/04/24 00:01:22;;;;;;;8.47;5.50;;;;;;;-145.18;100.00;60484.78;5017605;28;20148;-70
2022/04/24 00:03:48;;;;;;;9.67;5.50;;;;;;;-145.18;100.00;60484.78;5026064;28;20030;-70
2022/04/24 00:06:13;;;;;;;8.83;5.13;;;;;;;-145.18;100.00;60484.78;5024842;28;20029;-70
2022/04/24 00:08:38;;;;;;;8.93;5.50;;;;;;;-145.18;100.00;60484.78;5029454;28;20025;-70
2022/04/24 00:11:04;;;;;;;8.63;5.53;;;;;;;-145.18;100.00;60484.78;5018328;28;20026;-70
2022/04/24 00:13:37;;;;;;;10.23;5.80;;;;;;;-145.18;100.00;60484.78;5022730;28;20021;-70
2022/04/24 00:16:02;;;;;;;8.53;5.63;;;;;;;-145.18;100.00;60484.78;5026748;28;20041;-70
2022/04/24 00:18:28;;;;;;;9.23;5.53;;;;;;;-145.18;100.00;60484.78;5013124;28;20512;-70
2022/04/24 00:20:53;;;;;;;10.77;5.73;;;;;;;-145.18;100.00;60484.78;5023772;28;20029;-70
2022/04/24 00:23:19;;;;;;;10.33;5.50;;;;;;;-145.18;100.00;60484.78;5029874;28;20404;-70
2022/04/24 00:25:44;;;;;;;9.33;5.33;;;;;;;-145.18;100.00;60484.78;5022997;28;20056;-70
2022/04/24 00:28:09;;;;;;;8.03;5.00;;;;;;;-145.18;100.00;60484.78;5020769;28;20029;-70
2022/04/24 00:30:35;;;;;;;8.47;5.40;;;;;;;-145.18;100.00;60484.78;4989809;28;20029;-70
2022/04/24 00:33:00;;;;;;;11.10;5.20;;;;;;;-145.18;100.00;60484.78;5023222;28;20149;-70
2022/04/24 00:35:25;;;;;;;8.03;5.10;;;;;;;-145.18;100.00;60484.78;5023511;28;20022;-70
2022/04/24 00:37:51;;;;;;;10.03;5.37;;;;;;;-145.18;100.00;60484.78;5024450;28;20065;-70
2022/04/24 00:40:18;;;;;;;8.20;4.80;;;;;;;-145.18;100.00;60484.78;5023500;28;20029;-70
2022/04/24 00:42:44;;;;;;;9.20;5.20;;;;;;;-145.18;100.00;60484.78;5023729;28;20030;-70
2022/04/24 00:45:09;;;;;;;8.50;5.57;;;;;;;-145.18;100.00;60484.78;5022925;28;20183;-70
2022/04/24 00:47:35;;;;;;;8.47;4.77;;;;;;;-145.18;100.00;60484.78;5023293;28;20390;-70
2022/04/24 00:50:01;;;;;;;7.57;4.90;;;;;;;-145.18;100.00;60484.78;5022935;28;20033;-70
2022/04/24 00:52:26;;;;;;;10.23;5.80;;;;;;;-145.18;100.00;60484.78;5023155;28;20478;-70
2022/04/24 00:54:51;;;;;;;9.50;5.33;;;;;;;-145.18;100.00;60484.78;5007013;28;20045;-70
2022/04/24 00:57:17;;;;;;;7.70;4.90;;;;;;;-145.18;100.00;60484.78;5012820;28;20037;-70
2022/04/24 00:59:43;;;;;;;9.37;5.53;;;;;;;-145.18;100.00;60484.78;5012541;28;20404;-70
2022/04/24 01:02:12;;;;;;;8.77;5.67;;;;;;;-145.18;100.00;60484.78;5019214;28;20393;-70
2022/04/24 01:04:38;;;;;;;8.47;5.70;;;;;;;-145.18;100.00;60484.78;5023729;28;20492;-70
2022/04/24 01:07:05;;;;;;;7.33;4.67;;;;;;;-145.18;100.00;60484.78;5022968;28;20033;-70
2022/04/24 01:09:33;;;;;;;8.27;4.80;;;;;;;-145.18;100.00;60484.78;5023179;28;20465;-70
2022/04/24 01:11:58;;;;;;;9.40;5.50;;;;;;;-145.18;100.00;60484.78;5024160;28;20040;-70
2022/04/24 01:14:26;;;;;;;8.87;5.40;;;;;;;-145.18;100.00;60484.78;5021865;28;20038;-70
2022/04/24 01:16:52;;;;;;;10.60;5.77;;;;;;;-145.18;100.00;60484.78;5025653;28;20038;-70
2022/04/24 01:19:18;;;;;;;8.77;5.63;;;;;;;-145.18;100.00;60484.78;5020479;28;20021;-70
2022/04/24 01:21:45;;;;;;;9.83;5.93;;;;;;;-145.18;100.00;60484.78;5034533;28;20153;-70
2022/04/24 01:24:12;;;;;;;8.93;5.93;;;;;;;-145.18;100.00;60484.78;5030597;28;20947;-70
2022/04/24 01:26:38;;;;;;;11.30;5.80;;;;;;;-145.18;100.00;60484.78;5026057;28;20029;-70
2022/04/24 01:29:04;;;;;;;9.20;5.67;;;;;;;-145.18;100.00;60484.78;5027567;28;20052;-70
2022/04/24 01:31:33;;;;;;;9.60;5.57;;;;;;;-145.18;100.00;60484.78;5027032;28;20025;-70
2022/04/24 01:33:59;;;;;;;9.00;5.70;;;;;;;-145.18;100.00;60484.78;5025696;28;20543;-70
2022/04/24 01:36:25;;;;;;;10.30;5.37;;;;;;;-145.18;100.00;60484.78;5027397;28;20041;-70
2022/04/24 01:38:50;;;;;;;10.17;5.30;;;;;;;-145.18;100.00;60484.78;5027320;28;20029;-70
2022/04/24 01:41:16;;;;;;;10.83;5.80;;;;;;;-145.18;100.00;60484.78;5029763;28;20030;-70
2022/04/24 01:43:42;;;;;;;10.47;5.10;;;;;;;-145.18;100.00;60484.78;5031292;28;20025;-70
2022/04/24 01:46:09;;;;;;;7.90;4.90;;;;;;;-145.18;100.00;60484.78;5031662;28;20024;-70
2022/04/24 01:48:35;;;;;;;9.10;4.97;;;;;;;-145.18;100.00;60484.78;5033883;28;20025;-70
2022/04/24 01:51:01;;;;;;;11.20;5.03;;;;;;;-145.18;100.00;60484.78;5021347;28;20025;-70
2022/04/24 01:53:28;;;;;;;7.63;5.40;;;;;;;-145.18;100.00;60484.78;5029645;28;20084;-70
2022/04/24 01:55:58;;;;;;;7.67;5.30;;;;;;;-145.18;100.00;60484.78;5025346;28;20056;-70
2022/04/24 01:58:24;;;;;;;12.20;4.83;;;;;;;-145.18;100.00;60484.78;5020811;28;20037;-70
2022/04/24 02:00:51;;;;;;;8.50;5.30;;;;;;;-145.18;100.00;60484.78;5027315;28;21852;-70
2022/04/24 02:03:16;;;;;;;8.13;4.70;;;;;;;-145.18;100.00;60484.78;5026537;28;21004;-70
2022/04/24 02:05:41;;;;;;;7.90;5.10;;;;;;;-145.18;100.00;60484.78;5014880;28;20029;-70
2022/04/24 02:08:07;;;;;;;9.13;5.60;;;;;;;-145.18;100.00;60484.78;5029411;28;20069;-70
2022/04/24 02:10:32;;;;;;;8.83;5.23;;;;;;;-145.18;100.00;60484.78;5029706;28;20033;-70
2022/04/24 02:12:58;;;;;;;9.50;5.10;;;;;;;-145.18;100.00;60484.78;5018394;28;20037;-71
2022/04/24 02:15:23;;;;;;;7.87;4.93;;;;;;;-145.18;100.00;60484.78;5019880;28;20031;-70
2022/04/24 02:17:49;;;;;;;7.53;5.00;;;;;;;-145.18;100.00;60484.78;5027073;28;20047;-70
2022/04/24 02:20:14;;;;;;;10.47;5.30;;;;;;;-145.18;100.00;60484.78;5019285;28;20029;-71
2022/04/24 02:22:40;;;;;;;10.00;4.90;;;;;;;-145.18;100.00;60484.78;5009914;28;20032;-70
2022/04/24 02:25:06;;;;;;;7.67;5.00;;;;;;;-145.18;100.00;60484.78;5011275;28;20071;-71
2022/04/24 02:27:32;;;;;;;8.53;5.30;;;;;;;-145.18;100.00;60484.78;5014864;28;20033;-70
2022/04/24 02:29:57;;;;;;;10.30;6.00;;;;;;;-145.18;100.00;60484.78;5008829;28;20032;-70
2022/04/24 02:32:22;;;;;;;8.20;5.17;;;;;;;-145.18;100.00;60484.78;5009276;28;20156;-70
2022/04/24 02:34:48;;;;;;;9.93;5.43;;;;;;;-145.18;100.00;60484.78;5009718;28;20045;-70
2022/04/24 02:37:13;;;;;;;8.43;5.27;;;;;;;-145.18;100.00;60484.78;5013859;28;20029;-70
2022/04/24 02:39:39;;;;;;;10.03;5.67;;;;;;;-145.18;100.00;60484.78;5009218;28;20509;-70
2022/04/24 02:42:04;;;;;;;12.10;5.03;;;;;;;-145.18;100.00;60484.78;5009789;28;20604;-70
2022/04/24 02:44:30;;;;;;;9.17;4.60;;;;;;;-145.18;100.00;60484.78;5010473;28;20041;-70
2022/04/24 02:46:55;;;;;;;8.60;5.17;;;;;;;-145.18;100.00;60484.78;5015529;28;20037;-70
2022/04/24 02:49:21;;;;;;;8.57;4.87;;;;;;;-145.18;100.00;60484.78;5020273;28;20111;-70
2022/04/24 02:51:46;;;;;;;7.83;5.00;;;;;;;-145.18;100.00;60484.78;5026326;28;20474;-70
2022/04/24 02:54:12;;;;;;;7.80;5.37;;;;;;;-145.18;100.00;60484.78;5026074;28;20049;-70
2022/04/24 02:56:37;;;;;;;8.47;5.33;;;;;;;-145.18;100.00;60484.78;5027922;28;20034;-70
2022/04/24 02:59:03;;;;;;;10.00;5.20;;;;;;;-145.18;100.00;60484.78;5024282;28;20033;-70
2022/04/24 03:01:30;;;;;;;10.70;5.87;;;;;;;-145.18;100.00;60484.78;5025691;28;20028;-71
2022/04/24 03:03:58;;;;;;;9.33;5.87;;;;;;;-145.18;100.00;60484.78;5025881;28;20036;-70
2022/04/24 03:06:23;;;;;;;8.67;5.10;;;;;;;-145.18;100.00;60484.78;5025756;28;20035;-70
2022/04/24 03:08:48;;;;;;;7.70;5.23;;;;;;;-145.18;100.00;60484.78;5024293;28;20029;-70
2022/04/24 03:11:15;;;;;;;9.33;5.13;;;;;;;-145.18;100.00;60484.78;5010829;28;20037;-70
2022/04/24 03:13:40;;;;;;;7.87;4.23;;;;;;;-145.18;100.00;60484.78;5009699;28;20044;-70
2022/04/24 03:16:06;;;;;;;7.53;5.27;;;;;;;-145.18;100.00;60484.78;5017151;28;20029;-70
2022/04/24 03:18:31;;;;;;;9.13;4.87;;;;;;;-145.18;100.00;60484.78;5031152;28;20440;-70
2022/04/24 03:20:57;;;;;;;10.53;5.07;;;;;;;-145.18;100.00;60484.78;5014744;28;20021;-70
2022/04/24 03:23:22;;;;;;;7.87;5.20;;;;;;;-145.18;100.00;60484.78;5027292;28;20055;-70
2022/04/24 03:25:50;;;;;;;9.07;5.17;;;;;;;-145.18;100.00;60484.78;5018066;28;20037;-70
2022/04/24 03:28:16;;;;;;;9.23;4.90;;;;;;;-145.18;100.00;60484.78;5011997;28;20478;-70
2022/04/24 03:30:41;;;;;;;7.33;4.97;;;;;;;-145.18;100.00;60484.78;5009309;28;20038;-70
2022/04/24 03:33:07;;;;;;;9.13;5.30;;;;;;;-145.18;100.00;60484.78;4991566;28;20869;-70
2022/04/24 03:35:32;;;;;;;11.27;5.20;;;;;;;-145.18;100.00;60484.78;5013321;28;20034;-70
2022/04/24 03:37:57;;;;;;;9.90;5.20;;;;;;;-145.18;100.00;60484.78;5008948;28;20485;-70
2022/04/24 03:40:23;;;;;;;8.83;5.50;;;;;;;-145.18;100.00;60484.78;5009159;28;20037;-70
2022/04/24 03:42:48;;;;;;;8.87;5.60;;;;;;;-145.18;100.00;60484.78;5009405;28;20174;-70
2022/04/24 03:45:14;;;;;;;9.80;4.97;;;;;;;-145.18;100.00;60484.78;5017908;28;20037;-70
2022/04/24 03:47:39;;;;;;;8.73;5.63;;;;;;;-145.18;100.00;60484.78;5024755;28;21791;-70
2022/04/24 03:50:06;;;;;;;9.13;5.03;;;;;;;-145.18;100.00;60484.78;5024495;28;20068;-70
2022/04/24 03:52:31;;;;;;;9.70;5.20;;;;;;;-145.18;100.00;60484.78;5024811;28;22344;-70
2022/04/24 03:54:57;;;;;;;9.03;5.43;;;;;;;-145.18;100.00;60484.78;5024106;28;20025;-70
2022/04/24 03:57:22;;;;;;;11.03;5.20;;;;;;;-145.18;100.00;60484.78;5023052;28;20047;-70
2022/04/24 03:59:48;;;;;;;14.27;5.27;;;;;;;-145.18;100.00;60484.78;5024154;28;20029;-70
2022/04/24 04:02:13;;;;;;;11.67;5.37;;;;;;;-145.18;100.00;60484.78;5024693;28;20084;-69
2022/04/24 04:04:39;;;;;;;8.53;4.73;;;;;;;-145.18;100.00;60484.78;5023483;28;20029;-70
2022/04/24 04:07:05;;;;;;;10.03;5.37;;;;;;;-145.18;100.00;60484.78;5023912;28;20063;-70
2022/04/24 04:09:30;;;;;;;8.93;5.40;;;;;;;-145.18;100.00;60484.78;5023345;28;20036;-70
2022/04/24 04:11:56;;;;;;;9.90;5.30;;;;;;;-145.18;100.00;60484.78;5025194;28;20025;-70
2022/04/24 04:14:22;;;;;;;8.00;5.13;;;;;;;-145.18;100.00;60484.78;5023273;28;20033;-70
2022/04/24 04:16:49;;;;;;;10.60;5.47;;;;;;;-145.18;100.00;60484.78;5023726;28;20068;-70
2022/04/24 04:19:14;;;;;;;11.20;5.80;;;;;;;-145.18;100.00;60484.78;5024346;28;20037;-70
2022/04/24 04:21:39;;;;;;;9.30;5.40;;;;;;;-145.18;100.00;60484.78;5025191;28;20044;-70
2022/04/24 04:24:05;;;;;;;8.37;5.30;;;;;;;-145.18;100.00;60484.78;5024200;28;20515;-70
2022/04/24 04:26:30;;;;;;;10.60;5.23;;;;;;;-145.18;100.00;60484.78;5024584;28;20127;-70
2022/04/24 04:28:57;;;;;;;10.73;5.80;;;;;;;-145.18;100.00;60484.78;5024320;28;20052;-70
2022/04/24 04:31:22;;;;;;;9.43;5.20;;;;;;;-145.18;100.00;60484.78;5023452;28;20044;-70
2022/04/24 04:33:48;;;;;;;11.53;5.40;;;;;;;-145.18;100.00;60484.78;5023588;28;20041;-70
2022/04/24 04:36:13;;;;;;;8.07;4.90;;;;;;;-145.18;100.00;60484.78;5021641;28;20025;-70
2022/04/24 04:38:38;;;;;;;9.57;5.27;;;;;;;-145.18;100.00;60484.78;5024612;28;20064;-70
2022/04/24 04:41:04;;;;;;;9.13;5.07;;;;;;;-145.18;100.00;60484.78;5003626;28;20025;-70
2022/04/24 04:43:30;;;;;;;10.87;5.23;;;;;;;-145.18;100.00;60484.78;5023790;28;20163;-70
2022/04/24 04:45:56;;;;;;;10.67;5.47;;;;;;;-145.18;100.00;60484.78;5004298;28;20143;-70
2022/04/24 04:48:21;;;;;;;8.40;4.73;;;;;;;-145.18;100.00;60484.78;5024537;28;20089;-70
2022/04/24 04:50:47;;;;;;;8.53;4.67;;;;;;;-145.18;100.00;60484.78;5022934;28;20037;-70
2022/04/24 04:53:12;;;;;;;8.03;4.87;;;;;;;-145.18;100.00;60484.78;5024593;28;20082;-70
2022/04/24 04:55:38;;;;;;;7.13;4.63;;;;;;;-145.18;100.00;60484.78;5027312;28;20588;-70
2022/04/24 04:58:03;;;;;;;9.27;5.40;;;;;;;-145.18;100.00;60484.78;5030385;28;20025;-70
2022/04/24 05:00:29;;;;;;;9.43;5.57;;;;;;;-145.18;100.00;60484.78;5029418;28;20132;-70
2022/04/24 05:02:54;;;;;;;8.47;4.60;;;;;;;-145.18;100.00;60484.78;5020969;28;20231;-70
2022/04/24 05:05:20;;;;;;;10.60;5.07;;;;;;;-145.18;100.00;60484.78;5022947;28;20052;-70
2022/04/24 05:07:45;;;;;;;7.77;4.43;;;;;;;-145.18;100.00;60484.78;5023696;28;20037;-69
2022/04/24 05:10:11;;;;;;;8.37;4.77;;;;;;;-145.18;100.00;60484.78;5022204;28;20040;-69
2022/04/24 05:12:36;;;;;;;7.80;4.93;;;;;;;-145.18;100.00;60484.78;5023573;28;20466;-70
2022/04/24 05:15:06;;;;;;;6.60;3.97;;;;;;;-145.18;100.00;60484.78;5024803;28;20188;-70
2022/04/24 05:17:34;;;;;;;6.60;4.27;;;;;;;-145.18;100.00;60484.78;5023114;28;20266;-69
2022/04/24 05:19:59;;;;;;;7.23;4.03;;;;;;;-145.18;100.00;60484.78;5024024;28;20106;-70
2022/04/24 05:22:26;;;;;;;8.33;4.73;;;;;;;-145.18;100.00;60484.78;5029370;28;20052;-69
2022/04/24 05:24:51;;;;;;;7.20;4.07;;;;;;;-145.18;100.00;60484.78;5023260;28;20073;-69
2022/04/24 05:27:17;;;;;;;8.27;4.07;;;;;;;-145.18;100.00;60484.78;5035164;28;20551;-69
2022/04/24 05:29:42;;;;;;;7.50;4.10;;;;;;;-145.18;100.00;60484.78;5027049;28;20025;-70
2022/04/24 05:32:10;;;;;;;8.30;3.90;;;;;;;-145.18;100.00;60484.78;5022661;28;20033;-69
2022/04/24 05:34:36;;;;;;;9.93;4.00;;;;;;;-145.18;100.00;60484.78;5022208;28;20104;-69
2022/04/24 05:37:03;;;;;;;7.07;3.20;;;;;;;-145.18;100.00;60484.78;5024023;28;20124;-70
2022/04/24 05:39:28;;;;;;;7.17;3.70;;;;;;;-145.18;100.00;60484.78;5021849;28;20026;-69
2022/04/24 05:41:53;;;;;;;8.83;3.77;;;;;;;-145.18;100.00;60484.78;5023981;28;20021;-70
2022/04/24 05:44:19;;;;;;;8.67;3.33;;;;;;;-145.18;100.00;60484.78;5024094;28;20079;-70
2022/04/24 05:46:44;;;;;;;7.23;3.70;;;;;;;-145.18;100.00;60484.78;5022196;28;20033;-69
2022/04/24 05:49:10;;;;;;;6.83;3.60;;;;;;;-145.18;100.00;60484.78;5022169;28;20125;-69
2022/04/24 05:51:35;;;;;;;7.57;4.00;;;;;;;-145.18;100.00;60484.78;5021665;28;20030;-70
2022/04/24 05:54:00;;;;;;;6.47;3.40;;;;;;;-145.18;100.00;60484.78;5022038;28;20449;-70
2022/04/24 05:56:26;;;;;;;7.20;3.60;;;;;;;-145.18;100.00;60484.78;5024449;28;20025;-69
2022/04/24 05:58:51;;;;;;;10.20;3.80;;;;;;;-145.18;100.00;60484.78;5023410;28;20025;-69
2022/04/24 06:01:17;;;;;;;7.80;3.50;;;;;;;-145.18;100.00;60484.78;5022316;28;20037;-69
2022/04/24 06:03:43;;;;;;;9.27;3.60;;;;;;;-145.18;100.00;60484.78;5023610;28;20064;-69
2022/04/24 06:06:09;;;;;;;5.97;3.03;;;;;;;-145.18;100.00;60484.78;5024614;28;20064;-69
2022/04/24 06:08:35;;;;;;;6.80;3.17;;;;;;;-145.18;100.00;60484.78;5027662;28;20064;-69
2022/04/24 06:11:00;;;;;;;5.50;2.80;;;;;;;-145.18;100.00;60484.78;5026371;28;20171;-69
2022/04/24 06:13:26;;;;;;;7.63;3.57;;;;;;;-145.18;100.00;60484.78;5026634;28;20455;-69
2022/04/24 06:15:55;;;;;;;7.27;3.77;;;;;;;-145.18;100.00;60484.78;5025611;28;20029;-69
2022/04/24 06:18:21;;;;;;;5.17;3.27;;;;;;;-145.18;100.00;60484.78;5026569;28;20389;-69
2022/04/24 06:20:47;;;;;;;7.10;3.47;;;;;;;-145.18;100.00;60484.78;5025737;28;20022;-69
2022/04/24 06:23:12;;;;;;;9.37;3.57;;;;;;;-145.18;100.00;60484.78;5027238;28;20106;-69
2022/04/24 06:25:38;;;;;;;6.47;3.00;;;;;;;-145.18;100.00;60484.78;5025629;28;20040;-69
2022/04/24 06:28:05;;;;;;;7.83;3.10;;;;;;;-145.18;100.00;60484.78;5025936;28;20886;-69
2022/04/24 06:30:32;;;;;;;9.17;3.50;;;;;;;-145.18;100.00;60484.78;5025979;28;20468;-69
2022/04/24 06:32:58;;;;;;;7.27;3.13;;;;;;;-145.18;100.00;60484.78;5027465;28;20043;-69
2022/04/24 06:35:32;;;;;;;5.13;2.77;;;;;;;-145.18;100.00;60484.78;5026299;28;20087;-69
2022/04/24 06:37:57;;;;;;;5.33;2.90;;;;;;;-145.18;100.00;60484.78;5027060;28;20499;-69
2022/04/24 06:40:24;;;;;;;4.40;2.20;;;;;;;-145.18;100.00;60484.78;5026943;28;20025;-69
2022/04/24 06:42:54;;;;;;;5.53;2.60;;;;;;;-145.18;100.00;60484.78;5025750;28;20033;-69
2022/04/24 06:45:25;;;;;;;5.87;2.47;;;;;;;-145.18;100.00;60484.78;5025014;28;20465;-69
2022/04/24 06:48:09;;;;;;;4.33;2.20;;;;;;;-145.18;100.00;60484.78;5025535;28;20026;-69
2022/04/24 06:50:35;;;;;;;4.83;2.00;;;;;;;-145.18;100.00;60484.78;5025061;28;20026;-69
2022/04/24 06:53:09;;;;;;;4.97;2.30;;;;;;;-145.18;100.00;60484.78;5025291;28;20033;-69
2022/04/24 06:55:37;;;;;;;4.77;2.40;;;;;;;-145.18;100.00;60484.78;5029633;28;20594;-69
2022/04/24 06:58:04;;;;;;;5.10;2.10;;;;;;;-145.18;100.00;60484.78;5032570;28;20024;-69
2022/04/24 07:00:33;;;;;;;6.53;2.17;;;;;;;-145.18;100.00;60484.78;5030601;28;20037;-69
2022/04/24 07:02:58;;;;;;;6.17;2.37;;;;;;;-145.18;100.00;60484.78;5031864;28;20068;-69
2022/04/24 07:05:27;;;;;;;4.83;2.27;;;;;;;-145.18;100.00;60484.78;5019594;28;20029;-69
2022/04/24 07:07:53;;;;;;;4.50;2.20;;;;;;;-145.18;100.00;60484.78;5032815;28;20087;-69
2022/04/24 07:10:19;;;;;;;7.00;2.20;;;;;;;-145.18;100.00;60484.78;5021583;28;20029;-70
2022/04/24 07:12:49;;;;;;;4.47;1.95;;;;;;;-145.18;100.00;60484.78;5031080;28;20034;-70
2022/04/24 07:15:17;;;;;;;4.47;2.20;;;;;;;-145.18;100.00;60484.78;5026891;28;20049;-70
2022/04/24 07:17:43;;;;;;;4.43;1.98;;;;;;;-145.18;100.00;60484.78;5030089;28;20033;-70
2022/04/24 07:20:10;;;;;;;4.57;2.03;;;;;;;-145.18;100.00;60484.78;5026607;28;20033;-70
2022/04/24 07:23:02;;;;;;;5.38;1.98;;;;;;;-145.18;100.00;60484.78;5031456;28;20436;-70
2022/04/24 07:25:28;;;;;;;;;;;;;;;-145.18;100.00;60484.78;5022762;28;20041;-70
2022/04/24 07:27:54;;;;;;;5.63;2.15;;;;;;;-145.18;100.00;60484.78;5031409;28;20434;-70
2022/04/24 07:30:21;;;;;;;5.32;2.00;;;;;;;-145.18;100.00;60484.78;5030348;28;20112;-70
2022/04/24 07:32:54;;;;;;;4.57;2.00;;;;;;;-145.18;100.00;60484.78;5032544;28;20057;-70
2022/04/24 07:35:39;;;;;;;5.70;2.40;;;;;;;-145.18;100.00;60484.78;5031081;28;20079;-69
2022/04/24 07:38:05;;;;;;;4.28;2.05;;;;;;;-145.18;100.00;60484.78;5030590;28;20108;-69
2022/04/24 07:40:32;;;;;;;4.78;2.20;;;;;;;-145.18;100.00;60484.78;5027534;28;20132;-70
2022/04/24 07:43:00;;;;;;;6.22;2.20;;;;;;;-145.18;100.00;60484.78;5025717;28;20142;-70
2022/04/24 07:45:49;;;;;;;5.00;2.20;;;;;;;-145.18;100.00;60484.78;5024795;28;20104;-70
2022/04/24 07:48:16;;;;;;;4.57;2.22;;;;;;;-145.18;100.00;60484.78;5028593;28;20055;-70
2022/04/24 07:50:49;;;;;;;5.45;2.40;;;;;;;-145.18;100.00;60484.78;5023848;28;20064;-70
2022/04/24 07:53:16;;;;;;;4.40;1.98;;;;;;;-145.18;100.00;60484.78;5024377;28;20036;-71
2022/04/24 07:55:46;;;;;;;5.72;2.30;;;;;;;-145.18;100.00;60484.78;5027022;28;20115;-71
2022/04/24 07:58:13;;;;;;;8.73;2.10;;;;;;;-145.18;100.00;60484.78;5024808;28;20127;-70
2022/04/24 08:00:39;;;;;;;4.18;2.20;;;;;;;-145.18;100.00;60484.78;5025231;28;20021;-70
2022/04/24 08:03:12;;;;;;;6.43;2.25;;;;;;;-145.18;100.00;60484.78;5023516;28;20021;-71
2022/04/24 08:05:40;;;;;;;5.95;2.20;;;;;;;-145.18;100.00;60484.78;5022422;28;20485;-70
2022/04/24 08:08:09;;;;;;;3.90;2.10;;;;;;;-145.18;100.00;60484.78;5023095;28;20116;-70
2022/04/24 08:10:40;;;;;;;4.10;1.85;;;;;;;-145.18;100.00;60484.78;5023339;28;20029;-70
2022/04/24 08:13:06;;;;;;;8.50;2.53;;;;;;;-145.18;100.00;60484.78;5024357;28;20025;-70
2022/04/24 08:15:33;;;;;;;5.40;2.38;;;;;;;-145.18;100.00;60484.78;5022714;28;20030;-70
2022/04/24 08:17:58;;;;;;;4.80;2.05;;;;;;;-145.18;100.00;60484.78;5025432;28;20888;-70
2022/04/24 08:20:24;;;;;;;3.90;1.75;;;;;;;-145.18;100.00;60484.78;5024108;28;20080;-70
2022/04/24 08:22:52;;;;;;;8.20;2.35;;;;;;;-145.18;100.00;60484.78;5006965;28;20057;-70
2022/04/24 08:25:20;;;;;;;4.63;1.98;;;;;;;-145.18;100.00;60484.78;5023856;28;20025;-70
2022/04/24 08:27:47;;;;;;;4.55;2.10;;;;;;;-145.18;100.00;60484.78;5022143;28;20025;-70
2022/04/24 08:30:14;;;;;;;5.25;2.10;;;;;;;-145.18;100.00;60484.78;5023403;28;20039;-70
2022/04/24 08:32:40;;;;;;;3.95;1.90;;;;;;;-145.18;100.00;60484.78;5023253;28;20051;-71
2022/04/24 08:35:08;;;;;;;3.75;2.15;;;;;;;-145.18;100.00;60484.78;5022778;28;20028;-70
2022/04/24 08:37:34;;;;;;;5.80;2.00;;;;;;;-145.18;100.00;60484.78;5022703;28;20025;-70
2022/04/24 08:39:59;;;;;;;4.75;2.10;;;;;;;-145.18;100.00;60484.78;5014907;28;20404;-70
2022/04/24 08:42:26;;;;;;;4.15;1.95;;;;;;;-145.18;100.00;60484.78;5021820;28;20021;-71
2022/04/24 08:44:56;;;;;;;3.22;1.75;;;;;;;-145.18;100.00;60484.78;5020739;28;20104;-70
2022/04/24 08:47:26;;;;;;;4.68;2.00;;;;;;;-145.18;100.00;60484.78;5021158;28;20060;-71
2022/04/24 08:49:57;;;;;;;4.93;1.92;;;;;;;-145.18;100.00;60484.78;5015280;28;20029;-71
2022/04/24 08:52:23;;;;;;;4.85;2.00;;;;;;;-145.18;100.00;60484.78;5016770;28;20029;-71
2022/04/24 08:54:50;;;;;;;4.35;1.92;;;;;;;-145.18;100.00;60484.78;5022856;28;20122;-71
2022/04/24 08:57:17;;;;;;;4.63;1.80;;;;;;;-145.18;100.00;60484.78;5030497;28;20095;-71
2022/04/24 08:59:42;;;;;;;4.40;1.70;;;;;;;-145.18;100.00;60484.78;5029631;28;20060;-71
2022/04/24 09:02:09;;;;;;;3.30;1.60;;;;;;;-145.18;100.00;60484.78;5022719;28;20033;-71
2022/04/24 09:04:35;;;;;;;5.55;2.22;;;;;;;-145.18;100.00;60484.78;5019118;28;20036;-71
2022/04/24 09:07:03;;;;;;;3.28;1.80;;;;;;;-145.18;100.00;60484.78;5019936;28;20033;-71
2022/04/24 09:09:32;;;;;;;5.38;2.20;;;;;;;-145.18;100.00;60484.78;5023656;28;20120;-71
2022/04/24 09:12:11;;;;;;;4.80;2.33;;;;;;;-145.18;100.00;60484.78;5019805;28;20045;-70
2022/04/24 09:14:37;;;;;;;3.88;2.08;;;;;;;-145.18;100.00;60484.78;5015959;28;20540;-70
2022/04/24 09:17:14;;;;;;;4.50;2.20;;;;;;;-145.18;100.00;60484.78;5015376;28;20032;-70
2022/04/24 09:19:39;;;;;;;4.70;1.95;;;;;;;-145.18;100.00;60484.78;5016270;28;20032;-70
2022/04/24 09:22:07;;;;;;;4.55;1.85;;;;;;;-145.18;100.00;60484.78;5020137;28;20025;-70
2022/04/24 09:24:41;;;;;;;4.40;2.30;;;;;;;-145.18;100.00;60484.78;5022869;28;20393;-69
2022/04/24 09:27:07;;;;;;;4.43;2.42;;;;;;;-145.18;100.00;60484.78;5011645;28;20041;-69
2022/04/24 09:29:32;;;;;;;4.78;2.20;;;;;;;-145.18;100.00;60484.78;5023705;28;20440;-69
2022/04/24 09:31:57;;;;;;;5.55;2.50;;;;;;;-145.18;100.00;60484.78;5023106;28;20071;-69
2022/04/24 09:34:34;;;;;;;4.75;2.20;;;;;;;-145.18;100.00;60484.78;5020646;28;20654;-69
2022/04/24 09:37:02;;;;;;;5.40;2.40;;;;;;;-145.18;100.00;60484.78;5003351;28;20061;-69
2022/04/24 09:39:33;;;;;;;5.70;2.05;;;;;;;-145.18;100.00;60484.78;5021387;28;20072;-70
2022/04/24 09:42:10;;;;;;;3.83;2.00;;;;;;;-145.18;100.00;60484.78;5022878;28;20048;-70
2022/04/24 09:44:47;;;;;;;3.80;1.98;;;;;;;-145.18;100.00;60484.78;5022824;28;20056;-70
2022/04/24 09:47:16;;;;;;;5.55;2.10;;;;;;;-145.18;100.00;60484.78;5022209;28;20029;-70
2022/04/24 09:49:45;;;;;;;4.35;2.20;;;;;;;-145.18;100.00;60484.78;5022367;28;20053;-70
2022/04/24 09:52:16;;;;;;;4.63;1.90;;;;;;;-145.18;100.00;60484.78;5023563;28;20029;-70
2022/04/24 09:54:46;;;;;;;5.20;2.40;;;;;;;-145.18;100.00;60484.78;5021992;28;20452;-70
2022/04/24 09:57:13;;;;;;;6.13;2.38;;;;;;;-145.18;100.00;60484.78;5021907;28;20116;-70
2022/04/24 09:59:41;;;;;;;4.38;2.30;;;;;;;-145.18;100.00;60484.78;5023138;28;20037;-69
2022/04/24 10:02:07;;;;;;;6.25;2.15;;;;;;;-145.18;100.00;60484.78;5021630;28;20033;-70
2022/04/24 10:04:36;;;;;;;3.85;1.90;;;;;;;-145.18;100.00;60484.78;5021608;28;20886;-70
2022/04/24 10:07:05;;;;;;;6.55;2.22;;;;;;;-145.18;100.00;60484.78;5027343;28;20033;-70
2022/04/24 10:09:34;;;;;;;8.05;1.98;;;;;;;-145.18;100.00;60484.78;5022885;28;20742;-69
2022/04/24 10:12:19;;;;;;;4.65;2.03;;;;;;;-145.18;100.00;60484.78;5018834;28;20125;-69
2022/04/24 10:15:03;;;;;;;5.45;2.10;;;;;;;-145.18;100.00;60484.78;5021589;28;20060;-69
2022/04/24 10:17:43;;;;;;;3.40;2.03;;;;;;;-145.18;100.00;60484.78;5023059;28;20048;-69
2022/04/24 10:20:27;;;;;;;5.20;1.95;;;;;;;-145.18;100.00;60484.78;5024162;28;20029;-69
2022/04/24 10:22:54;;;;;;;5.00;2.50;;;;;;;-145.18;100.00;60484.78;5020976;28;20139;-69
2022/04/24 10:25:35;;;;;;;4.45;2.25;;;;;;;-145.18;100.00;60484.78;5021493;28;20075;-69
2022/04/24 10:28:18;;;;;;;5.68;2.35;;;;;;;-145.18;100.00;60484.78;5022461;28;20048;-69
2022/04/24 10:30:56;;;;;;;4.13;1.90;;;;;;;-145.18;100.00;60484.78;5021338;28;20138;-69
2022/04/24 10:33:24;;;;;;;4.60;2.40;;;;;;;-145.18;100.00;60484.78;5022974;28;20110;-69
2022/04/24 10:36:02;;;;;;;4.00;1.88;;;;;;;-145.18;100.00;60484.78;5022767;28;20045;-69
2022/04/24 10:38:29;;;;;;;4.05;2.03;;;;;;;-145.18;100.00;60484.78;5023450;28;20036;-69
2022/04/24 10:41:03;;;;;;;3.85;1.67;;;;;;;-145.18;100.00;60484.78;5022448;28;20021;-69
2022/04/24 10:43:45;;;;;;;5.88;2.20;;;;;;;-145.18;100.00;60484.78;5023457;28;20021;-69
2022/04/24 10:46:18;;;;;;;4.97;2.28;;;;;;;-145.18;100.00;60484.78;5005252;28;20151;-69
2022/04/24 10:48:46;;;;;;;5.82;2.45;;;;;;;-145.18;100.00;60484.78;5020633;28;20029;-69
2022/04/24 10:51:12;;;;;;;5.75;2.58;;;;;;;-145.18;100.00;60484.78;5022664;28;20111;-69
2022/04/24 10:54:08;;;;;;;6.47;2.50;;;;;;;-145.18;100.00;60484.78;5023899;28;20037;-69
2022/04/24 10:56:36;;;;;;;6.43;2.35;;;;;;;-145.18;100.00;60484.78;5013684;28;20064;-69
2022/04/24 10:59:19;;;;;;;5.57;2.53;;;;;;;-145.18;100.00;60484.78;5022073;28;20044;-69
2022/04/24 11:01:48;;;;;;;4.70;2.30;;;;;;;-145.18;100.00;60484.78;5020934;28;20036;-69
2022/04/24 11:04:14;;;;;;;5.57;2.33;;;;;;;-145.18;100.00;60484.78;5021476;28;20136;-69
2022/04/24 11:07:04;;;;;;;5.78;2.40;;;;;;;-145.18;100.00;60484.78;5023125;28;20025;-69
2022/04/24 11:09:33;;;;;;;4.85;2.38;;;;;;;-145.18;100.00;60484.78;5003529;28;20459;-69
2022/04/24 11:12:01;;;;;;;6.82;2.80;;;;;;;-145.18;100.00;60484.78;5022692;28;20424;-69